APL Florida — 9V8987 — position and weather

sailwx.info

Track history (hours):
 
Tides and Currents Weather Stations Pressure Air Temp Water Temp Dewpoint Dewpoint Depression Visibility Wind Speed Wind Dir Waves Ship Positions

APL Florida

Last reported at 2018-Jun-15 09:36 UTC. Time now 2018-Jun-25 09:30 UTC.
Position N 37°31' E 016°24'.
Warning: this ship's position is 9 days out of date.

Length 293 m; draft 12.9 m.

Type: Ship (hazmat cat A). MMSI: 564397000.

Date/timePositionNaut miles runAvg speedWind from/ knotsBaromVisibWave heightAir tempDewpointWater temp
2018-Jun-15 09:36N 37°31' E 016°24'421.1
2018-Jun-15 09:25N 37°33' E 016°19'1120.9
2018-Jun-15 08:54N 37°38' E 016°08'920.9
2018-Jun-15 08:28N 37°42' E 015°57'1021.0
2018-Jun-15 08:00N 37°46' E 015°46'1220.6
2018-Jun-15 07:26N 37°55' E 015°37'920.9
2018-Jun-15 07:00N 38°04' E 015°34'816.7
2018-Jun-15 06:30N 38°12' E 015°36'713.2
2018-Jun-15 06:01N 38°18' E 015°40'713.4
2018-Jun-15 05:30N 38°24' E 015°38'1120.3
2018-Jun-15 04:59N 38°33' E 015°31'1020.5
2018-Jun-15 04:31N 38°38' E 015°20'1020.4
2018-Jun-15 04:00N 38°43' E 015°09'1020.3
2018-Jun-15 03:30N 38°49' E 014°58'34419.5
2018-Jun-14 09:51N 42°54' E 009°38'820.6
2018-Jun-14 09:27N 43°02' E 009°35'920.4
2018-Jun-14 09:01N 43°11' E 009°31'1020.6
2018-Jun-14 08:31N 43°20' E 009°27'1020.7
2018-Jun-14 08:01N 43°30' E 009°22'1020.2
2018-Jun-14 07:31N 43°40' E 009°17'1020.0
2018-Jun-14 07:01N 43°49' E 009°13'1020.4
2018-Jun-14 06:31N 43°58' E 009°07'1020.4
2018-Jun-14 06:00N 44°08' E 009°02'1019.8
2018-Jun-14 05:31N 44°17' E 008°58'612.4
2018-Jun-14 05:00N 44°23' E 008°56'1 2.6
2018-Jun-14 04:29N 44°24' E 008°55'0 0.0
2018-Jun-14 03:59N 44°24' E 008°55'0 0.0
2018-Jun-14 03:29N 44°24' E 008°55'0 0.1
2018-Jun-14 02:59N 44°24' E 008°55'0 0.0
2018-Jun-14 02:29N 44°24' E 008°55'0 0.0
2018-Jun-14 01:59N 44°24' E 008°55'0 0.0
2018-Jun-14 01:29N 44°24' E 008°55'0 0.0
2018-Jun-14 00:59N 44°24' E 008°55'0 0.0
2018-Jun-14 00:29N 44°24' E 008°55'0 0.0
2018-Jun-13 23:59N 44°24' E 008°55'0 0.0
2018-Jun-13 23:29N 44°24' E 008°55'0 0.0
2018-Jun-13 22:59N 44°24' E 008°55'0 0.0
2018-Jun-13 22:29N 44°24' E 008°55'0 0.0
2018-Jun-13 21:59N 44°24' E 008°55'0 0.0
2018-Jun-13 21:29N 44°24' E 008°55'0 0.0
2018-Jun-13 20:59N 44°24' E 008°55'0 0.0
2018-Jun-13 20:29N 44°24' E 008°55'0 0.0
2018-Jun-13 19:59N 44°24' E 008°55'0 0.0
2018-Jun-13 19:29N 44°24' E 008°55'0 0.0
2018-Jun-13 18:59N 44°24' E 008°55'0 0.0
2018-Jun-13 18:29N 44°24' E 008°55'0 0.0
2018-Jun-13 17:59N 44°24' E 008°55'0 0.0
2018-Jun-13 17:29N 44°24' E 008°55'0 0.0
2018-Jun-13 16:59N 44°24' E 008°55'0 0.0
2018-Jun-13 16:29N 44°24' E 008°55'0 0.0
2018-Jun-13 15:59N 44°24' E 008°55'0 0.0
2018-Jun-13 15:29N 44°24' E 008°55'0 0.0
2018-Jun-13 14:59N 44°24' E 008°55'0 0.0
2018-Jun-13 14:29N 44°24' E 008°55'0 0.0
2018-Jun-13 13:59N 44°24' E 008°55'0 0.0
2018-Jun-13 13:29N 44°24' E 008°55'0 0.0
2018-Jun-13 12:59N 44°24' E 008°55'0 0.0
2018-Jun-13 12:29N 44°24' E 008°55'0 0.0
2018-Jun-13 12:00N 44°24' E 008°55'1 1.9
2018-Jun-13 11:30N 44°24' E 008°56'2 3.0
2018-Jun-13 11:00N 44°23' E 008°57'3 6.9
2018-Jun-13 10:30N 44°19' E 008°57'1 2.6
2018-Jun-13 10:00N 44°18' E 008°56'1 1.4
2018-Jun-13 09:30N 44°18' E 008°57'1 1.4
2018-Jun-13 09:00N 44°18' E 008°58'1 1.0
2018-Jun-13 08:30N 44°17' E 008°58'2 3.6
2018-Jun-13 08:00N 44°16' E 008°57'5 9.3
2018-Jun-13 07:30N 44°11' E 008°55'5 9.7
2018-Jun-13 07:00N 44°07' E 008°52'0 0.2
2018-Jun-13 06:30N 44°07' E 008°52'0 0.6
2018-Jun-13 06:00N 44°07' E 008°52'0 0.6
2018-Jun-13 05:30N 44°07' E 008°52'0 0.7
2018-Jun-13 05:00N 44°07' E 008°51'0 0.4
2018-Jun-13 04:30N 44°07' E 008°51'1 1.3
2018-Jun-13 04:00N 44°08' E 008°51'4 7.9
2018-Jun-13 03:30N 44°11' E 008°54'5 9.0
2018-Jun-13 03:00N 44°15' E 008°58'1 1.9
2018-Jun-13 02:30N 44°16' E 008°57'1 2.0
2018-Jun-13 02:00N 44°15' E 008°56'1 2.1
2018-Jun-13 01:30N 44°14' E 008°55'1 2.3
2018-Jun-13 01:00N 44°14' E 008°53'1 1.9
2018-Jun-13 00:30N 44°13' E 008°53'1 1.9
2018-Jun-13 00:00N 44°14' E 008°53'1 2.1
2018-Jun-12 23:30N 44°14' E 008°54'3 6.5
2018-Jun-12 23:00N 44°15' E 008°58'1 2.4
2018-Jun-12 22:30N 44°15' E 009°00'1 1.6
2018-Jun-12 22:00N 44°14' E 008°59'1 1.1
2018-Jun-12 21:30N 44°14' E 008°59'0 0.6
2018-Jun-12 21:00N 44°13' E 008°59'0 0.5
2018-Jun-12 20:30N 44°13' E 008°58'0 0.6
2018-Jun-12 20:00N 44°13' E 008°58'0 0.6
2018-Jun-12 19:30N 44°13' E 008°57'0 0.6
2018-Jun-12 19:00N 44°13' E 008°57'0 0.6
2018-Jun-12 18:30N 44°13' E 008°57'0 0.6
2018-Jun-12 18:00N 44°14' E 008°56'0 0.7
2018-Jun-12 17:30N 44°14' E 008°56'0 0.8
2018-Jun-12 17:00N 44°14' E 008°55'0 0.7
2018-Jun-12 16:30N 44°14' E 008°55'0 0.7
2018-Jun-12 16:00N 44°14' E 008°54'0 0.7
2018-Jun-12 15:30N 44°14' E 008°54'0 0.7
2018-Jun-12 15:00N 44°14' E 008°53'0 0.6
2018-Jun-12 14:30N 44°14' E 008°53'0 0.8
2018-Jun-12 14:00N 44°14' E 008°52'0 0.8
2018-Jun-12 13:30N 44°14' E 008°52'0 0.7
2018-Jun-12 13:00N 44°14' E 008°51'0 0.7
2018-Jun-12 12:30N 44°14' E 008°51'0 0.6
2018-Jun-12 12:00N 44°14' E 008°51'0 0.4
2018-Jun-12 11:30N 44°14' E 008°51'1 2.2
2018-Jun-12 11:00N 44°13' E 008°52'4 8.8
2018-Jun-12 10:30N 44°09' E 008°55'611.8
2018-Jun-12 10:01N 44°04' E 008°51'714.2
2018-Jun-12 09:31N 43°58' E 008°45'714.1
2018-Jun-12 09:00N 43°52' E 008°40'714.1
2018-Jun-12 08:30N 43°46' E 008°34'816.0
2018-Jun-12 08:00N 43°40' E 008°27'918.3
2018-Jun-12 07:30N 43°35' E 008°16'714.2
2018-Jun-12 07:00N 43°29' E 008°11'1713.9
2018-Jun-12 05:47N 43°16' E 007°56'514.0
2018-Jun-12 05:27N 43°14' E 007°50'1413.8
2018-Jun-12 04:28N 43°08' E 007°34'713.7
2018-Jun-12 03:57N 43°07' E 007°24'613.5
2018-Jun-12 03:30N 43°04' E 007°17'713.4
2018-Jun-12 03:01N 43°02' E 007°08'713.6
2018-Jun-12 02:30N 42°59' E 006°59'1413.7
2018-Jun-12 01:31N 42°54' E 006°42'613.9
2018-Jun-12 01:04N 42°52' E 006°34'6113.5
2018-Jun-11 20:33N 43°06' E 005°13'113.9
2018-Jun-11 20:29N 43°07' E 005°12'714.0
2018-Jun-11 20:00N 43°10' E 005°04'612.8
2018-Jun-11 19:30N 43°16' E 004°60'612.9
2018-Jun-11 19:00N 43°22' E 004°57'4 7.4
2018-Jun-11 18:30N 43°24' E 004°53'2 3.2
2018-Jun-11 18:00N 43°24' E 004°51'0 0.0
2018-Jun-11 17:29N 43°25' E 004°51'0 0.0
2018-Jun-11 16:59N 43°24' E 004°51'0 0.0
2018-Jun-11 16:29N 43°24' E 004°51'0 0.0
2018-Jun-11 15:59N 43°24' E 004°51'0 0.0
2018-Jun-11 15:29N 43°24' E 004°51'0 0.0
2018-Jun-11 14:59N 43°24' E 004°51'0 0.0
2018-Jun-11 14:29N 43°25' E 004°51'0 0.0
2018-Jun-11 13:59N 43°25' E 004°51'0 0.1
2018-Jun-11 13:29N 43°24' E 004°51'0 0.1
2018-Jun-11 12:59N 43°24' E 004°51'0 0.0
2018-Jun-11 12:29N 43°24' E 004°51'0 0.0
2018-Jun-11 11:59N 43°24' E 004°51'0 0.0
2018-Jun-11 11:29N 43°24' E 004°51'0 0.0
2018-Jun-11 10:59N 43°24' E 004°51'0 0.0
2018-Jun-11 10:29N 43°24' E 004°51'0 0.0
2018-Jun-11 09:53N 43°24' E 004°51'0 0.0
2018-Jun-11 09:29N 43°24' E 004°51'0 0.0
2018-Jun-11 08:59N 43°24' E 004°51'0 0.0
2018-Jun-11 08:29N 43°24' E 004°51'0 0.0
2018-Jun-11 07:59N 43°24' E 004°51'0 0.0
2018-Jun-11 07:29N 43°24' E 004°51'0 0.0
2018-Jun-11 06:59N 43°24' E 004°51'0 0.0
2018-Jun-11 06:29N 43°24' E 004°51'0 0.0
2018-Jun-11 05:59N 43°24' E 004°51'0 0.0
2018-Jun-11 05:29N 43°24' E 004°51'0 0.0
2018-Jun-11 04:59N 43°24' E 004°51'0 0.0
2018-Jun-11 04:29N 43°24' E 004°51'0 0.0
2018-Jun-11 03:59N 43°24' E 004°51'0 0.0
2018-Jun-11 03:29N 43°24' E 004°51'0 0.1
2018-Jun-11 02:59N 43°24' E 004°51'0 0.0
2018-Jun-11 02:29N 43°25' E 004°51'0 0.0
2018-Jun-11 01:59N 43°24' E 004°51'0 0.0
2018-Jun-11 01:29N 43°24' E 004°51'0 0.0
2018-Jun-11 00:59N 43°24' E 004°51'0 0.0
2018-Jun-11 00:29N 43°24' E 004°51'0 0.0
2018-Jun-10 23:59N 43°24' E 004°51'0 0.0
2018-Jun-10 23:29N 43°24' E 004°51'0 0.0
2018-Jun-10 22:59N 43°24' E 004°51'0 0.0
2018-Jun-10 22:29N 43°24' E 004°51'0 0.0
2018-Jun-10 21:59N 43°24' E 004°51'0 0.1
2018-Jun-10 21:29N 43°25' E 004°51'0 0.1
2018-Jun-10 20:59N 43°24' E 004°51'0 0.1
2018-Jun-10 20:23N 43°24' E 004°51'0 0.1
2018-Jun-10 19:53N 43°24' E 004°51'0 0.1
2018-Jun-10 19:29N 43°24' E 004°51'0 0.0
2018-Jun-10 18:59N 43°24' E 004°51'0 0.0
2018-Jun-10 18:23N 43°24' E 004°51'0 0.0
2018-Jun-10 17:59N 43°24' E 004°51'0 0.0
2018-Jun-10 17:29N 43°24' E 004°51'0 0.0
2018-Jun-10 16:59N 43°24' E 004°51'0 0.0
2018-Jun-10 16:29N 43°24' E 004°51'0 0.0
2018-Jun-10 15:59N 43°24' E 004°51'0 0.0
2018-Jun-10 15:29N 43°24' E 004°51'0 0.0
2018-Jun-10 14:59N 43°24' E 004°51'0 0.0
2018-Jun-10 14:29N 43°25' E 004°51'0 0.0
2018-Jun-10 13:29N 43°24' E 004°51'0 0.0
2018-Jun-10 12:59N 43°24' E 004°51'0 0.0
2018-Jun-10 12:29N 43°24' E 004°51'0 0.0
2018-Jun-10 11:59N 43°24' E 004°51'0 0.0
2018-Jun-10 11:29N 43°24' E 004°51'0 0.1
2018-Jun-10 10:59N 43°24' E 004°51'0 0.0
2018-Jun-10 10:29N 43°24' E 004°51'0 0.0
2018-Jun-10 09:59N 43°24' E 004°51'0 0.0
2018-Jun-10 09:29N 43°24' E 004°51'0 0.0
2018-Jun-10 08:59N 43°24' E 004°51'0 0.0
2018-Jun-10 08:11N 43°24' E 004°51'0 0.0
2018-Jun-10 07:59N 43°24' E 004°51'0 0.0
2018-Jun-10 07:29N 43°24' E 004°51'0 0.0
2018-Jun-10 06:53N 43°24' E 004°51'0 0.0
2018-Jun-10 06:29N 43°24' E 004°51'0 0.0
2018-Jun-10 05:59N 43°24' E 004°51'0 0.0
2018-Jun-10 05:29N 43°24' E 004°51'0 0.0
2018-Jun-10 04:59N 43°24' E 004°51'0 0.0
2018-Jun-10 04:29N 43°24' E 004°51'0 0.0
2018-Jun-10 03:59N 43°24' E 004°51'0 0.0
2018-Jun-10 03:29N 43°24' E 004°51'0 0.2
2018-Jun-10 03:01N 43°24' E 004°51'1 2.2
2018-Jun-10 02:31N 43°24' E 004°53'4 8.8
2018-Jun-10 02:00N 43°22' E 004°58'4 7.3
2018-Jun-10 01:30N 43°19' E 004°60'4 7.9
2018-Jun-10 01:00N 43°15' E 005°01'4 8.6
2018-Jun-10 00:30N 43°10' E 005°01'4 8.2
2018-Jun-10 00:01N 43°07' E 004°58'612.1
2018-Jun-09 23:30N 43°02' E 004°53'1713.0
2018-Jun-09 22:12N 42°49' E 004°39'415.6
2018-Jun-09 21:59N 42°46' E 004°36'715.7
2018-Jun-09 21:30N 42°40' E 004°30'815.9
2018-Jun-09 21:00N 42°34' E 004°23'816.1
2018-Jun-09 20:30N 42°28' E 004°16'1216.3
2018-Jun-09 19:46N 42°18' E 004°07'416.7
2018-Jun-09 19:30N 42°15' E 004°03'816.6
2018-Jun-09 19:00N 42°08' E 003°56'1016.5
2018-Jun-09 18:24N 41°60' E 003°48'616.3
2018-Jun-09 18:00N 41°55' E 003°43'816.1
2018-Jun-09 17:29N 41°48' E 003°36'815.6
2018-Jun-09 16:59N 41°42' E 003°29'715.7
2018-Jun-09 16:30N 41°36' E 003°24'1015.6
2018-Jun-09 15:52N 41°28' E 003°15'715.6
2018-Jun-09 15:26N 41°23' E 003°09'1515.9
2018-Jun-09 14:30N 41°11' E 002°58'816.1
2018-Jun-09 14:00N 41°05' E 002°51'816.1
2018-Jun-09 13:30N 40°58' E 002°45'816.1
2018-Jun-09 13:00N 40°52' E 002°38'816.0
2018-Jun-09 12:30N 40°46' E 002°32'1216.2
2018-Jun-09 11:45N 40°36' E 002°22'1416.3
2018-Jun-09 10:55N 40°25' E 002°11'716.4
2018-Jun-09 10:30N 40°20' E 002°06'1816.1
2018-Jun-09 09:24N 40°06' E 001°51'616.0
2018-Jun-09 09:00N 40°01' E 001°46'11116.4
2018-Jun-09 02:16N 38°32' E 000°20'415.9
2018-Jun-09 02:00N 38°29' E 000°17'816.3
2018-Jun-09 01:30N 38°22' E 000°12'816.3
2018-Jun-09 01:00N 38°15' E 000°06'816.3
2018-Jun-09 00:30N 38°08' E 000°01'816.4
2018-Jun-09 00:00N 38°02' W 000°05'816.5
2018-Jun-08 23:30N 37°55' W 000°11'816.5
2018-Jun-08 23:00N 37°48' W 000°17'816.3
2018-Jun-08 22:30N 37°41' W 000°22'816.0
2018-Jun-08 22:00N 37°35' W 000°29'816.1
2018-Jun-08 21:30N 37°29' W 000°36'816.4
2018-Jun-08 21:00N 37°24' W 000°44'816.3
2018-Jun-08 20:30N 37°18' W 000°51'916.8
2018-Jun-08 19:59N 37°13' W 000°59'816.9
2018-Jun-08 19:30N 37°07' W 001°07'916.7
2018-Jun-08 19:00N 37°01' W 001°15'816.5
2018-Jun-08 18:30N 36°56' W 001°22'916.5
2018-Jun-08 17:58N 36°49' W 001°30'18616.4
2018-Jun-08 06:38N 35°60' W 005°12'319.2
2018-Jun-08 06:30N 35°59' W 005°16'918.7
2018-Jun-08 06:00N 35°58' W 005°27'917.3
2018-Jun-08 05:30N 35°55' W 005°37'1016.4
2018-Jun-08 04:55N 35°55' W 005°49'916.6
2018-Jun-08 04:21N 35°54' W 006°01'14517.0
2018-Jun-07 19:49N 36°29' W 008°55'617.6
2018-Jun-07 19:29N 36°31' W 009°02'8215.9
2018-Jun-07 14:20N 37°43' W 009°50'617.0
2018-Jun-07 14:00N 37°49' W 009°51'816.6
2018-Jun-07 13:30N 37°57' W 009°53'816.9
2018-Jun-07 13:00N 38°05' W 009°55'816.8
2018-Jun-07 12:30N 38°13' W 009°58'917.1
2018-Jun-07 12:00N 38°22' W 009°60'817.0
2018-Jun-07 11:30N 38°30' W 010°02'917.0
2018-Jun-07 11:00N 38°38' W 010°05'816.9
2018-Jun-07 10:30N 38°47' W 010°06'817.0
2018-Jun-07 10:00N 38°55' W 010°06'816.9
2018-Jun-07 09:30N 39°03' W 010°06'917.3
2018-Jun-07 09:00N 39°12' W 010°06'918.9
2018-Jun-07 08:30N 39°22' W 010°06'918.0
2018-Jun-07 07:59N 39°31' W 010°06'1417.3
2018-Jun-07 07:10N 39°45' W 010°06'57716.9
2018-Jun-05 21:00N 48°52' W 005°49'1916.2
2018-Jun-05 19:51N 49°03' W 005°26'8317.0
2018-Jun-05 14:59N 49°45' W 003°36'817.4
2018-Jun-05 14:30N 49°49' W 003°25'917.3
2018-Jun-05 14:00N 49°53' W 003°14'917.2
2018-Jun-05 13:31N 49°58' W 003°03'917.5
2018-Jun-05 13:00N 50°00' W 002°49'1017.5
2018-Jun-05 12:25N 50°03' W 002°34'817.3
2018-Jun-05 11:59N 50°04' W 002°22'917.1
2018-Jun-05 11:28N 50°04' W 002°08'817.1
2018-Jun-05 11:01N 50°02' W 001°56'816.5
2018-Jun-05 10:31N 50°01' W 001°44'815.4
2018-Jun-05 10:00N 50°00' W 001°32'  
Track history (hours):
 
Tides and Currents Weather Stations Pressure Air Temp Water Temp Dewpoint Dewpoint Depression Visibility Wind Speed Wind Dir Waves Ship Positions

APL Florida

Last reported at 2018-Jun-15 09:36 UTC. Time now 2018-Jun-25 09:30 UTC.
Position N 37°31' E 016°24'.
Warning: this ship's position is 9 days out of date.

Length 293 m; draft 12.9 m.

Type: Ship (hazmat cat A). MMSI: 564397000.

Date/timePositionNaut miles runAvg speedWind from/ knotsBaromVisibWave heightAir tempDewpointWater temp
2018-Jun-15 09:36N 37°31' E 016°24'421.1
2018-Jun-15 09:25N 37°33' E 016°19'1120.9
2018-Jun-15 08:54N 37°38' E 016°08'920.9
2018-Jun-15 08:28N 37°42' E 015°57'1021.0
2018-Jun-15 08:00N 37°46' E 015°46'1220.6
2018-Jun-15 07:26N 37°55' E 015°37'920.9
2018-Jun-15 07:00N 38°04' E 015°34'816.7
2018-Jun-15 06:30N 38°12' E 015°36'713.2
2018-Jun-15 06:01N 38°18' E 015°40'713.4
2018-Jun-15 05:30N 38°24' E 015°38'1120.3
2018-Jun-15 04:59N 38°33' E 015°31'1020.5
2018-Jun-15 04:31N 38°38' E 015°20'1020.4
2018-Jun-15 04:00N 38°43' E 015°09'1020.3
2018-Jun-15 03:30N 38°49' E 014°58'34419.5
2018-Jun-14 09:51N 42°54' E 009°38'820.6
2018-Jun-14 09:27N 43°02' E 009°35'920.4
2018-Jun-14 09:01N 43°11' E 009°31'1020.6
2018-Jun-14 08:31N 43°20' E 009°27'1020.7
2018-Jun-14 08:01N 43°30' E 009°22'1020.2
2018-Jun-14 07:31N 43°40' E 009°17'1020.0
2018-Jun-14 07:01N 43°49' E 009°13'1020.4
2018-Jun-14 06:31N 43°58' E 009°07'1020.4
2018-Jun-14 06:00N 44°08' E 009°02'1019.8
2018-Jun-14 05:31N 44°17' E 008°58'612.4
2018-Jun-14 05:00N 44°23' E 008°56'1 2.6
2018-Jun-14 04:29N 44°24' E 008°55'0 0.0
2018-Jun-14 03:59N 44°24' E 008°55'0 0.0
2018-Jun-14 03:29N 44°24' E 008°55'0 0.1
2018-Jun-14 02:59N 44°24' E 008°55'0 0.0
2018-Jun-14 02:29N 44°24' E 008°55'0 0.0
2018-Jun-14 01:59N 44°24' E 008°55'0 0.0
2018-Jun-14 01:29N 44°24' E 008°55'0 0.0
2018-Jun-14 00:59N 44°24' E 008°55'0 0.0
2018-Jun-14 00:29N 44°24' E 008°55'0 0.0
2018-Jun-13 23:59N 44°24' E 008°55'0 0.0
2018-Jun-13 23:29N 44°24' E 008°55'0 0.0
2018-Jun-13 22:59N 44°24' E 008°55'0 0.0
2018-Jun-13 22:29N 44°24' E 008°55'0 0.0
2018-Jun-13 21:59N 44°24' E 008°55'0 0.0
2018-Jun-13 21:29N 44°24' E 008°55'0 0.0
2018-Jun-13 20:59N 44°24' E 008°55'0 0.0
2018-Jun-13 20:29N 44°24' E 008°55'0 0.0
2018-Jun-13 19:59N 44°24' E 008°55'0 0.0
2018-Jun-13 19:29N 44°24' E 008°55'0 0.0
2018-Jun-13 18:59N 44°24' E 008°55'0 0.0
2018-Jun-13 18:29N 44°24' E 008°55'0 0.0
2018-Jun-13 17:59N 44°24' E 008°55'0 0.0
2018-Jun-13 17:29N 44°24' E 008°55'0 0.0
2018-Jun-13 16:59N 44°24' E 008°55'0 0.0
2018-Jun-13 16:29N 44°24' E 008°55'0 0.0
2018-Jun-13 15:59N 44°24' E 008°55'0 0.0
2018-Jun-13 15:29N 44°24' E 008°55'0 0.0
2018-Jun-13 14:59N 44°24' E 008°55'0 0.0
2018-Jun-13 14:29N 44°24' E 008°55'0 0.0
2018-Jun-13 13:59N 44°24' E 008°55'0 0.0
2018-Jun-13 13:29N 44°24' E 008°55'0 0.0
2018-Jun-13 12:59N 44°24' E 008°55'0 0.0
2018-Jun-13 12:29N 44°24' E 008°55'0 0.0
2018-Jun-13 12:00N 44°24' E 008°55'1 1.9
2018-Jun-13 11:30N 44°24' E 008°56'2 3.0
2018-Jun-13 11:00N 44°23' E 008°57'3 6.9
2018-Jun-13 10:30N 44°19' E 008°57'1 2.6
2018-Jun-13 10:00N 44°18' E 008°56'1 1.4
2018-Jun-13 09:30N 44°18' E 008°57'1 1.4
2018-Jun-13 09:00N 44°18' E 008°58'1 1.0
2018-Jun-13 08:30N 44°17' E 008°58'2 3.6
2018-Jun-13 08:00N 44°16' E 008°57'5 9.3
2018-Jun-13 07:30N 44°11' E 008°55'5 9.7
2018-Jun-13 07:00N 44°07' E 008°52'0 0.2
2018-Jun-13 06:30N 44°07' E 008°52'0 0.6
2018-Jun-13 06:00N 44°07' E 008°52'0 0.6
2018-Jun-13 05:30N 44°07' E 008°52'0 0.7
2018-Jun-13 05:00N 44°07' E 008°51'0 0.4
2018-Jun-13 04:30N 44°07' E 008°51'1 1.3
2018-Jun-13 04:00N 44°08' E 008°51'4 7.9
2018-Jun-13 03:30N 44°11' E 008°54'5 9.0
2018-Jun-13 03:00N 44°15' E 008°58'1 1.9
2018-Jun-13 02:30N 44°16' E 008°57'1 2.0
2018-Jun-13 02:00N 44°15' E 008°56'1 2.1
2018-Jun-13 01:30N 44°14' E 008°55'1 2.3
2018-Jun-13 01:00N 44°14' E 008°53'1 1.9
2018-Jun-13 00:30N 44°13' E 008°53'1 1.9
2018-Jun-13 00:00N 44°14' E 008°53'1 2.1
2018-Jun-12 23:30N 44°14' E 008°54'3 6.5
2018-Jun-12 23:00N 44°15' E 008°58'1 2.4
2018-Jun-12 22:30N 44°15' E 009°00'1 1.6
2018-Jun-12 22:00N 44°14' E 008°59'1 1.1
2018-Jun-12 21:30N 44°14' E 008°59'0 0.6
2018-Jun-12 21:00N 44°13' E 008°59'0 0.5
2018-Jun-12 20:30N 44°13' E 008°58'0 0.6
2018-Jun-12 20:00N 44°13' E 008°58'0 0.6
2018-Jun-12 19:30N 44°13' E 008°57'0 0.6
2018-Jun-12 19:00N 44°13' E 008°57'0 0.6
2018-Jun-12 18:30N 44°13' E 008°57'0 0.6
2018-Jun-12 18:00N 44°14' E 008°56'0 0.7
2018-Jun-12 17:30N 44°14' E 008°56'0 0.8
2018-Jun-12 17:00N 44°14' E 008°55'0 0.7
2018-Jun-12 16:30N 44°14' E 008°55'0 0.7
2018-Jun-12 16:00N 44°14' E 008°54'0 0.7
2018-Jun-12 15:30N 44°14' E 008°54'0 0.7
2018-Jun-12 15:00N 44°14' E 008°53'0 0.6
2018-Jun-12 14:30N 44°14' E 008°53'0 0.8
2018-Jun-12 14:00N 44°14' E 008°52'0 0.8
2018-Jun-12 13:30N 44°14' E 008°52'0 0.7
2018-Jun-12 13:00N 44°14' E 008°51'0 0.7
2018-Jun-12 12:30N 44°14' E 008°51'0 0.6
2018-Jun-12 12:00N 44°14' E 008°51'0 0.4
2018-Jun-12 11:30N 44°14' E 008°51'1 2.2
2018-Jun-12 11:00N 44°13' E 008°52'4 8.8
2018-Jun-12 10:30N 44°09' E 008°55'611.8
2018-Jun-12 10:01N 44°04' E 008°51'714.2
2018-Jun-12 09:31N 43°58' E 008°45'714.1
2018-Jun-12 09:00N 43°52' E 008°40'714.1
2018-Jun-12 08:30N 43°46' E 008°34'816.0
2018-Jun-12 08:00N 43°40' E 008°27'918.3
2018-Jun-12 07:30N 43°35' E 008°16'714.2
2018-Jun-12 07:00N 43°29' E 008°11'1713.9
2018-Jun-12 05:47N 43°16' E 007°56'514.0
2018-Jun-12 05:27N 43°14' E 007°50'1413.8
2018-Jun-12 04:28N 43°08' E 007°34'713.7
2018-Jun-12 03:57N 43°07' E 007°24'613.5
2018-Jun-12 03:30N 43°04' E 007°17'713.4
2018-Jun-12 03:01N 43°02' E 007°08'713.6
2018-Jun-12 02:30N 42°59' E 006°59'1413.7
2018-Jun-12 01:31N 42°54' E 006°42'613.9
2018-Jun-12 01:04N 42°52' E 006°34'6113.5
2018-Jun-11 20:33N 43°06' E 005°13'113.9
2018-Jun-11 20:29N 43°07' E 005°12'714.0
2018-Jun-11 20:00N 43°10' E 005°04'612.8
2018-Jun-11 19:30N 43°16' E 004°60'612.9
2018-Jun-11 19:00N 43°22' E 004°57'4 7.4
2018-Jun-11 18:30N 43°24' E 004°53'2 3.2
2018-Jun-11 18:00N 43°24' E 004°51'0 0.0
2018-Jun-11 17:29N 43°25' E 004°51'0 0.0
2018-Jun-11 16:59N 43°24' E 004°51'0 0.0
2018-Jun-11 16:29N 43°24' E 004°51'0 0.0
2018-Jun-11 15:59N 43°24' E 004°51'0 0.0
2018-Jun-11 15:29N 43°24' E 004°51'0 0.0
2018-Jun-11 14:59N 43°24' E 004°51'0 0.0
2018-Jun-11 14:29N 43°25' E 004°51'0 0.0
2018-Jun-11 13:59N 43°25' E 004°51'0 0.1
2018-Jun-11 13:29N 43°24' E 004°51'0 0.1
2018-Jun-11 12:59N 43°24' E 004°51'0 0.0
2018-Jun-11 12:29N 43°24' E 004°51'0 0.0
2018-Jun-11 11:59N 43°24' E 004°51'0 0.0
2018-Jun-11 11:29N 43°24' E 004°51'0 0.0
2018-Jun-11 10:59N 43°24' E 004°51'0 0.0
2018-Jun-11 10:29N 43°24' E 004°51'0 0.0
2018-Jun-11 09:53N 43°24' E 004°51'0 0.0
2018-Jun-11 09:29N 43°24' E 004°51'0 0.0
2018-Jun-11 08:59N 43°24' E 004°51'0 0.0
2018-Jun-11 08:29N 43°24' E 004°51'0 0.0
2018-Jun-11 07:59N 43°24' E 004°51'0 0.0
2018-Jun-11 07:29N 43°24' E 004°51'0 0.0
2018-Jun-11 06:59N 43°24' E 004°51'0 0.0
2018-Jun-11 06:29N 43°24' E 004°51'0 0.0
2018-Jun-11 05:59N 43°24' E 004°51'0 0.0
2018-Jun-11 05:29N 43°24' E 004°51'0 0.0
2018-Jun-11 04:59N 43°24' E 004°51'0 0.0
2018-Jun-11 04:29N 43°24' E 004°51'0 0.0
2018-Jun-11 03:59N 43°24' E 004°51'0 0.0
2018-Jun-11 03:29N 43°24' E 004°51'0 0.1
2018-Jun-11 02:59N 43°24' E 004°51'0 0.0
2018-Jun-11 02:29N 43°25' E 004°51'0 0.0
2018-Jun-11 01:59N 43°24' E 004°51'0 0.0
2018-Jun-11 01:29N 43°24' E 004°51'0 0.0
2018-Jun-11 00:59N 43°24' E 004°51'0 0.0
2018-Jun-11 00:29N 43°24' E 004°51'0 0.0
2018-Jun-10 23:59N 43°24' E 004°51'0 0.0
2018-Jun-10 23:29N 43°24' E 004°51'0 0.0
2018-Jun-10 22:59N 43°24' E 004°51'0 0.0
2018-Jun-10 22:29N 43°24' E 004°51'0 0.0
2018-Jun-10 21:59N 43°24' E 004°51'0 0.1
2018-Jun-10 21:29N 43°25' E 004°51'0 0.1
2018-Jun-10 20:59N 43°24' E 004°51'0 0.1
2018-Jun-10 20:23N 43°24' E 004°51'0 0.1
2018-Jun-10 19:53N 43°24' E 004°51'0 0.1
2018-Jun-10 19:29N 43°24' E 004°51'0 0.0
2018-Jun-10 18:59N 43°24' E 004°51'0 0.0
2018-Jun-10 18:23N 43°24' E 004°51'0 0.0
2018-Jun-10 17:59N 43°24' E 004°51'0 0.0
2018-Jun-10 17:29N 43°24' E 004°51'0 0.0
2018-Jun-10 16:59N 43°24' E 004°51'0 0.0
2018-Jun-10 16:29N 43°24' E 004°51'0 0.0
2018-Jun-10 15:59N 43°24' E 004°51'0 0.0
2018-Jun-10 15:29N 43°24' E 004°51'0 0.0
2018-Jun-10 14:59N 43°24' E 004°51'0 0.0
2018-Jun-10 14:29N 43°25' E 004°51'0 0.0
2018-Jun-10 13:29N 43°24' E 004°51'0 0.0
2018-Jun-10 12:59N 43°24' E 004°51'0 0.0
2018-Jun-10 12:29N 43°24' E 004°51'0 0.0
2018-Jun-10 11:59N 43°24' E 004°51'0 0.0
2018-Jun-10 11:29N 43°24' E 004°51'0 0.1
2018-Jun-10 10:59N 43°24' E 004°51'0 0.0
2018-Jun-10 10:29N 43°24' E 004°51'0 0.0
2018-Jun-10 09:59N 43°24' E 004°51'0 0.0
2018-Jun-10 09:29N 43°24' E 004°51'0 0.0
2018-Jun-10 08:59N 43°24' E 004°51'0 0.0
2018-Jun-10 08:11N 43°24' E 004°51'0 0.0
2018-Jun-10 07:59N 43°24' E 004°51'0 0.0
2018-Jun-10 07:29N 43°24' E 004°51'0 0.0
2018-Jun-10 06:53N 43°24' E 004°51'0 0.0
2018-Jun-10 06:29N 43°24' E 004°51'0 0.0
2018-Jun-10 05:59N 43°24' E 004°51'0 0.0
2018-Jun-10 05:29N 43°24' E 004°51'0 0.0
2018-Jun-10 04:59N 43°24' E 004°51'0 0.0
2018-Jun-10 04:29N 43°24' E 004°51'0 0.0
2018-Jun-10 03:59N 43°24' E 004°51'0 0.0
2018-Jun-10 03:29N 43°24' E 004°51'0 0.2
2018-Jun-10 03:01N 43°24' E 004°51'1 2.2
2018-Jun-10 02:31N 43°24' E 004°53'4 8.8
2018-Jun-10 02:00N 43°22' E 004°58'4 7.3
2018-Jun-10 01:30N 43°19' E 004°60'4 7.9
2018-Jun-10 01:00N 43°15' E 005°01'4 8.6
2018-Jun-10 00:30N 43°10' E 005°01'4 8.2
2018-Jun-10 00:01N 43°07' E 004°58'612.1
2018-Jun-09 23:30N 43°02' E 004°53'1713.0
2018-Jun-09 22:12N 42°49' E 004°39'415.6
2018-Jun-09 21:59N 42°46' E 004°36'715.7
2018-Jun-09 21:30N 42°40' E 004°30'815.9
2018-Jun-09 21:00N 42°34' E 004°23'816.1
2018-Jun-09 20:30N 42°28' E 004°16'1216.3
2018-Jun-09 19:46N 42°18' E 004°07'416.7
2018-Jun-09 19:30N 42°15' E 004°03'816.6
2018-Jun-09 19:00N 42°08' E 003°56'1016.5
2018-Jun-09 18:24N 41°60' E 003°48'616.3
2018-Jun-09 18:00N 41°55' E 003°43'816.1
2018-Jun-09 17:29N 41°48' E 003°36'815.6
2018-Jun-09 16:59N 41°42' E 003°29'715.7
2018-Jun-09 16:30N 41°36' E 003°24'1015.6
2018-Jun-09 15:52N 41°28' E 003°15'715.6
2018-Jun-09 15:26N 41°23' E 003°09'1515.9
2018-Jun-09 14:30N 41°11' E 002°58'816.1
2018-Jun-09 14:00N 41°05' E 002°51'816.1
2018-Jun-09 13:30N 40°58' E 002°45'816.1
2018-Jun-09 13:00N 40°52' E 002°38'816.0
2018-Jun-09 12:30N 40°46' E 002°32'1216.2
2018-Jun-09 11:45N 40°36' E 002°22'1416.3
2018-Jun-09 10:55N 40°25' E 002°11'716.4
2018-Jun-09 10:30N 40°20' E 002°06'1816.1
2018-Jun-09 09:24N 40°06' E 001°51'616.0
2018-Jun-09 09:00N 40°01' E 001°46'11116.4
2018-Jun-09 02:16N 38°32' E 000°20'415.9
2018-Jun-09 02:00N 38°29' E 000°17'816.3
2018-Jun-09 01:30N 38°22' E 000°12'816.3
2018-Jun-09 01:00N 38°15' E 000°06'816.3
2018-Jun-09 00:30N 38°08' E 000°01'816.4
2018-Jun-09 00:00N 38°02' W 000°05'816.5
2018-Jun-08 23:30N 37°55' W 000°11'816.5
2018-Jun-08 23:00N 37°48' W 000°17'816.3
2018-Jun-08 22:30N 37°41' W 000°22'816.0
2018-Jun-08 22:00N 37°35' W 000°29'816.1
2018-Jun-08 21:30N 37°29' W 000°36'816.4
2018-Jun-08 21:00N 37°24' W 000°44'816.3
2018-Jun-08 20:30N 37°18' W 000°51'916.8
2018-Jun-08 19:59N 37°13' W 000°59'816.9
2018-Jun-08 19:30N 37°07' W 001°07'916.7
2018-Jun-08 19:00N 37°01' W 001°15'816.5
2018-Jun-08 18:30N 36°56' W 001°22'916.5
2018-Jun-08 17:58N 36°49' W 001°30'18616.4
2018-Jun-08 06:38N 35°60' W 005°12'319.2
2018-Jun-08 06:30N 35°59' W 005°16'918.7
2018-Jun-08 06:00N 35°58' W 005°27'917.3
2018-Jun-08 05:30N 35°55' W 005°37'1016.4
2018-Jun-08 04:55N 35°55' W 005°49'916.6
2018-Jun-08 04:21N 35°54' W 006°01'14517.0
2018-Jun-07 19:49N 36°29' W 008°55'617.6
2018-Jun-07 19:29N 36°31' W 009°02'8215.9
2018-Jun-07 14:20N 37°43' W 009°50'617.0
2018-Jun-07 14:00N 37°49' W 009°51'816.6
2018-Jun-07 13:30N 37°57' W 009°53'816.9
2018-Jun-07 13:00N 38°05' W 009°55'816.8
2018-Jun-07 12:30N 38°13' W 009°58'917.1
2018-Jun-07 12:00N 38°22' W 009°60'817.0
2018-Jun-07 11:30N 38°30' W 010°02'917.0
2018-Jun-07 11:00N 38°38' W 010°05'816.9
2018-Jun-07 10:30N 38°47' W 010°06'817.0
2018-Jun-07 10:00N 38°55' W 010°06'816.9
2018-Jun-07 09:30N 39°03' W 010°06'917.3
2018-Jun-07 09:00N 39°12' W 010°06'918.9
2018-Jun-07 08:30N 39°22' W 010°06'918.0
2018-Jun-07 07:59N 39°31' W 010°06'1417.3
2018-Jun-07 07:10N 39°45' W 010°06'57716.9
2018-Jun-05 21:00N 48°52' W 005°49'1916.2
2018-Jun-05 19:51N 49°03' W 005°26'8317.0
2018-Jun-05 14:59N 49°45' W 003°36'817.4
2018-Jun-05 14:30N 49°49' W 003°25'917.3
2018-Jun-05 14:00N 49°53' W 003°14'917.2
2018-Jun-05 13:31N 49°58' W 003°03'917.5
2018-Jun-05 13:00N 50°00' W 002°49'1017.5
2018-Jun-05 12:25N 50°03' W 002°34'817.3
2018-Jun-05 11:59N 50°04' W 002°22'917.1
2018-Jun-05 11:28N 50°04' W 002°08'817.1
2018-Jun-05 11:01N 50°02' W 001°56'816.5
2018-Jun-05 10:31N 50°01' W 001°44'815.4
2018-Jun-05 10:00N 50°00' W 001°32'  

Dump ship's entire track history